LFSP weather

Pontarlier Airport
Pontarlier, Franche-Comté, France

Public forecast

Using degrees Celsius for public forecast. Weather courtesy of forecast.io.

METAR (pilot weather report)

Closest report is Les Eplatures Airport, 21.9 nm (40.6 km) ENE. Retrieved 2019/07/21 01:20 UTC (26 minutes ago):

LSGC 210120Z AUTO 22005KT 170V250 9999 -TSRA BKN022 SCT027 SCT///CB 18/15 Q1023 REDZ

TAF (pilot weather forecast)

Forecast is more than 6 hours old.

Closest forecast is Payerne Air Base, 24.4 nm (45.2 km) E. Retrieved 2019/07/20 17:00 UTC (9 hours ago):

TAF LSMP 201625Z 2017/2123 22009KT CAVOK BECMG 2017/2019 9999 FEW060 SCT100